sensor_id;sensor_type;location;lat;lon;timestamp;pressure;altitude;pressure_sealevel;temperature;humidity
15794;BME280;7999;51.208;4.244;2023-01-25T00:01:03;103713.59;;;-0.09;100.00
15794;BME280;7999;51.208;4.244;2023-01-25T00:03:31;103714.56;;;0.02;100.00
15794;BME280;7999;51.208;4.244;2023-01-25T00:05:58;103711.28;;;0.13;100.00
15794;BME280;7999;51.208;4.244;2023-01-25T00:08:26;103712.53;;;0.37;100.00
15794;BME280;7999;51.208;4.244;2023-01-25T00:10:53;103704.53;;;0.24;100.00
15794;BME280;7999;51.208;4.244;2023-01-25T00:13:19;103706.34;;;0.25;100.00
15794;BME280;7999;51.208;4.244;2023-01-25T00:15:48;103711.66;;;0.47;100.00
15794;BME280;7999;51.208;4.244;2023-01-25T00:18:15;103712.09;;;0.22;100.00
15794;BME280;7999;51.208;4.244;2023-01-25T00:20:42;103703.06;;;0.36;100.00
15794;BME280;7999;51.208;4.244;2023-01-25T00:23:09;103708.34;;;0.09;100.00
15794;BME280;7999;51.208;4.244;2023-01-25T00:25:37;103704.34;;;0.31;100.00
15794;BME280;7999;51.208;4.244;2023-01-25T00:28:04;103710.09;;;0.39;100.00
15794;BME280;7999;51.208;4.244;2023-01-25T00:30:30;103696.41;;;0.28;100.00
15794;BME280;7999;51.208;4.244;2023-01-25T00:33:01;103695.75;;;0.30;100.00
15794;BME280;7999;51.208;4.244;2023-01-25T00:35:29;103699.53;;;0.15;100.00
15794;BME280;7999;51.208;4.244;2023-01-25T00:37:55;103701.44;;;0.08;100.00
15794;BME280;7999;51.208;4.244;2023-01-25T00:40:24;103695.16;;;0.04;100.00
15794;BME280;7999;51.208;4.244;2023-01-25T00:42:51;103695.56;;;-0.10;100.00
15794;BME280;7999;51.208;4.244;2023-01-25T00:45:18;103693.66;;;-0.13;100.00
15794;BME280;7999;51.208;4.244;2023-01-25T00:47:45;103684.72;;;-0.08;100.00
15794;BME280;7999;51.208;4.244;2023-01-25T00:50:13;103686.38;;;-0.08;100.00
15794;BME280;7999;51.208;4.244;2023-01-25T00:52:39;103676.97;;;0.01;100.00
15794;BME280;7999;51.208;4.244;2023-01-25T00:55:07;103684.91;;;0.04;100.00
15794;BME280;7999;51.208;4.244;2023-01-25T00:57:34;103679.88;;;-0.05;100.00
15794;BME280;7999;51.208;4.244;2023-01-25T01:00:00;103683.44;;;-0.03;100.00
15794;BME280;7999;51.208;4.244;2023-01-25T01:02:31;103680.22;;;-0.10;100.00
15794;BME280;7999;51.208;4.244;2023-01-25T01:04:58;103675.22;;;-0.19;100.00
15794;BME280;7999;51.208;4.244;2023-01-25T01:07:26;103673.59;;;-0.08;100.00
15794;BME280;7999;51.208;4.244;2023-01-25T01:09:53;103679.16;;;0.07;100.00
15794;BME280;7999;51.208;4.244;2023-01-25T01:12:22;103675.91;;;-0.01;100.00
15794;BME280;7999;51.208;4.244;2023-01-25T01:14:49;103669.84;;;0.07;100.00
15794;BME280;7999;51.208;4.244;2023-01-25T01:17:16;103672.16;;;0.14;100.00
15794;BME280;7999;51.208;4.244;2023-01-25T01:19:42;103666.22;;;0.34;100.00
15794;BME280;7999;51.208;4.244;2023-01-25T01:22:09;103666.03;;;0.22;100.00
15794;BME280;7999;51.208;4.244;2023-01-25T01:24:38;103669.81;;;0.36;100.00
15794;BME280;7999;51.208;4.244;2023-01-25T01:27:04;103665.59;;;0.47;100.00
15794;BME280;7999;51.208;4.244;2023-01-25T01:29:31;103663.03;;;0.47;100.00
15794;BME280;7999;51.208;4.244;2023-01-25T01:31:58;103664.81;;;0.27;100.00
15794;BME280;7999;51.208;4.244;2023-01-25T01:34:25;103661.66;;;0.11;100.00
15794;BME280;7999;51.208;4.244;2023-01-25T01:36:53;103665.75;;;0.09;100.00
15794;BME280;7999;51.208;4.244;2023-01-25T01:39:20;103666.50;;;0.08;100.00
15794;BME280;7999;51.208;4.244;2023-01-25T01:41:48;103665.25;;;0.13;100.00
15794;BME280;7999;51.208;4.244;2023-01-25T01:44:15;103667.31;;;0.17;100.00
15794;BME280;7999;51.208;4.244;2023-01-25T01:46:50;103672.69;;;0.20;100.00
15794;BME280;7999;51.208;4.244;2023-01-25T01:49:20;103666.50;;;0.08;100.00
15794;BME280;7999;51.208;4.244;2023-01-25T01:51:49;103677.28;;;0.14;100.00
15794;BME280;7999;51.208;4.244;2023-01-25T01:54:24;103680.22;;;0.19;100.00
15794;BME280;7999;51.208;4.244;2023-01-25T01:56:55;103673.22;;;0.26;100.00
15794;BME280;7999;51.208;4.244;2023-01-25T01:59:24;103676.34;;;0.43;100.00
15794;BME280;7999;51.208;4.244;2023-01-25T02:01:53;103680.16;;;0.38;100.00
15794;BME280;7999;51.208;4.244;2023-01-25T02:04:19;103675.81;;;0.37;100.00
15794;BME280;7999;51.208;4.244;2023-01-25T02:06:49;103673.03;;;0.54;100.00
15794;BME280;7999;51.208;4.244;2023-01-25T02:09:20;103665.44;;;0.35;100.00
15794;BME280;7999;51.208;4.244;2023-01-25T02:11:46;103672.41;;;0.17;100.00
15794;BME280;7999;51.208;4.244;2023-01-25T02:14:14;103664.03;;;0.28;100.00
15794;BME280;7999;51.208;4.244;2023-01-25T02:16:42;103668.38;;;0.29;100.00
15794;BME280;7999;51.208;4.244;2023-01-25T02:19:10;103671.41;;;0.25;100.00
15794;BME280;7999;51.208;4.244;2023-01-25T02:21:38;103663.19;;;0.09;100.00
15794;BME280;7999;51.208;4.244;2023-01-25T02:24:06;103661.94;;;0.24;100.00
15794;BME280;7999;51.208;4.244;2023-01-25T02:26:38;103663.28;;;0.29;100.00
15794;BME280;7999;51.208;4.244;2023-01-25T02:29:05;103653.03;;;0.29;100.00
15794;BME280;7999;51.208;4.244;2023-01-25T02:31:33;103652.13;;;0.29;100.00
15794;BME280;7999;51.208;4.244;2023-01-25T02:34:00;103660.03;;;0.22;100.00
15794;BME280;7999;51.208;4.244;2023-01-25T02:36:27;103650.16;;;0.16;100.00
15794;BME280;7999;51.208;4.244;2023-01-25T02:38:56;103654.28;;;0.24;100.00
15794;BME280;7999;51.208;4.244;2023-01-25T02:41:26;103658.53;;;0.34;100.00
15794;BME280;7999;51.208;4.244;2023-01-25T02:43:57;103654.19;;;0.33;100.00
15794;BME280;7999;51.208;4.244;2023-01-25T02:46:28;103661.28;;;0.07;100.00
15794;BME280;7999;51.208;4.244;2023-01-25T02:48:56;103658.50;;;-0.05;100.00
15794;BME280;7999;51.208;4.244;2023-01-25T02:51:24;103650.19;;;-0.13;100.00
15794;BME280;7999;51.208;4.244;2023-01-25T02:53:51;103663.47;;;-0.17;100.00
15794;BME280;7999;51.208;4.244;2023-01-25T02:56:19;103655.13;;;0.05;100.00
15794;BME280;7999;51.208;4.244;2023-01-25T02:58:47;103644.53;;;0.20;100.00
15794;BME280;7999;51.208;4.244;2023-01-25T03:01:16;103645.81;;;0.25;100.00
15794;BME280;7999;51.208;4.244;2023-01-25T03:03:43;103639.56;;;0.22;100.00
15794;BME280;7999;51.208;4.244;2023-01-25T03:06:10;103645.81;;;0.15;100.00
15794;BME280;7999;51.208;4.244;2023-01-25T03:08:37;103637.25;;;0.25;100.00
15794;BME280;7999;51.208;4.244;2023-01-25T03:11:05;103639.22;;;0.27;100.00
15794;BME280;7999;51.208;4.244;2023-01-25T03:13:33;103627.28;;;0.18;100.00
15794;BME280;7999;51.208;4.244;2023-01-25T03:16:01;103639.75;;;0.34;100.00
15794;BME280;7999;51.208;4.244;2023-01-25T03:18:30;103629.97;;;0.19;100.00
15794;BME280;7999;51.208;4.244;2023-01-25T03:21:02;103631.75;;;0.20;100.00
15794;BME280;7999;51.208;4.244;2023-01-25T03:23:29;103629.59;;;0.25;100.00
15794;BME280;7999;51.208;4.244;2023-01-25T03:26:02;103630.34;;;0.24;100.00
15794;BME280;7999;51.208;4.244;2023-01-25T03:28:29;103626.72;;;0.02;100.00
15794;BME280;7999;51.208;4.244;2023-01-25T03:30:56;103623.53;;;0.04;100.00
15794;BME280;7999;51.208;4.244;2023-01-25T03:33:23;103625.59;;;0.08;100.00
15794;BME280;7999;51.208;4.244;2023-01-25T03:35:53;103614.91;;;-0.07;100.00
15794;BME280;7999;51.208;4.244;2023-01-25T03:38:20;103616.00;;;-0.23;100.00
15794;BME280;7999;51.208;4.244;2023-01-25T03:40:46;103610.63;;;-0.26;100.00
15794;BME280;7999;51.208;4.244;2023-01-25T03:43:13;103610.00;;;-0.24;100.00
15794;BME280;7999;51.208;4.244;2023-01-25T03:45:41;103605.81;;;-0.13;100.00
15794;BME280;7999;51.208;4.244;2023-01-25T03:48:08;103604.09;;;0.06;100.00
15794;BME280;7999;51.208;4.244;2023-01-25T03:50:34;103610.69;;;-0.06;100.00
15794;BME280;7999;51.208;4.244;2023-01-25T03:53:22;103606.84;;;-0.11;100.00
15794;BME280;7999;51.208;4.244;2023-01-25T03:55:56;103598.66;;;-0.07;100.00
15794;BME280;7999;51.208;4.244;2023-01-25T03:58:23;103601.31;;;0.13;100.00
15794;BME280;7999;51.208;4.244;2023-01-25T04:00:50;103596.69;;;0.09;100.00
15794;BME280;7999;51.208;4.244;2023-01-25T04:03:17;103591.56;;;0.09;100.00
15794;BME280;7999;51.208;4.244;2023-01-25T04:05:44;103595.66;;;0.07;100.00
15794;BME280;7999;51.208;4.244;2023-01-25T04:08:11;103591.31;;;0.16;100.00
15794;BME280;7999;51.208;4.244;2023-01-25T04:10:40;103591.19;;;0.15;100.00
15794;BME280;7999;51.208;4.244;2023-01-25T04:13:07;103587.56;;;-0.08;100.00
15794;BME280;7999;51.208;4.244;2023-01-25T04:15:35;103579.94;;;0.03;100.00
15794;BME280;7999;51.208;4.244;2023-01-25T04:18:09;103580.25;;;-0.13;100.00
15794;BME280;7999;51.208;4.244;2023-01-25T04:20:36;103584.19;;;-0.27;100.00
15794;BME280;7999;51.208;4.244;2023-01-25T04:23:03;103587.56;;;-0.08;100.00
15794;BME280;7999;51.208;4.244;2023-01-25T04:25:35;103591.50;;;-0.11;100.00
15794;BME280;7999;51.208;4.244;2023-01-25T04:28:06;103582.97;;;-0.02;100.00
15794;BME280;7999;51.208;4.244;2023-01-25T04:30:33;103582.63;;;0.04;100.00
15794;BME280;7999;51.208;4.244;2023-01-25T04:33:03;103589.34;;;-0.07;100.00
15794;BME280;7999;51.208;4.244;2023-01-25T04:35:31;103586.91;;;-0.05;100.00
15794;BME280;7999;51.208;4.244;2023-01-25T04:37:59;103597.28;;;-0.04;100.00
15794;BME280;7999;51.208;4.244;2023-01-25T04:40:34;103591.06;;;0.03;100.00
15794;BME280;7999;51.208;4.244;2023-01-25T04:43:00;103589.78;;;0.08;100.00
15794;BME280;7999;51.208;4.244;2023-01-25T04:45:53;103596.63;;;-0.01;100.00
15794;BME280;7999;51.208;4.244;2023-01-25T04:48:27;103586.59;;;0.11;100.00
15794;BME280;7999;51.208;4.244;2023-01-25T04:50:57;103596.34;;;-0.14;100.00
15794;BME280;7999;51.208;4.244;2023-01-25T04:53:25;103596.34;;;-0.14;100.00
15794;BME280;7999;51.208;4.244;2023-01-25T04:55:53;103597.09;;;-0.25;100.00
15794;BME280;7999;51.208;4.244;2023-01-25T04:58:22;103589.34;;;-0.36;100.00
15794;BME280;7999;51.208;4.244;2023-01-25T05:00:50;103596.50;;;-0.42;100.00
15794;BME280;7999;51.208;4.244;2023-01-25T05:03:18;103583.97;;;-0.39;100.00
15794;BME280;7999;51.208;4.244;2023-01-25T05:05:45;103578.06;;;-0.48;100.00
15794;BME280;7999;51.208;4.244;2023-01-25T05:08:16;103580.75;;;-0.46;100.00
15794;BME280;7999;51.208;4.244;2023-01-25T05:10:43;103572.69;;;-0.51;100.00
15794;BME280;7999;51.208;4.244;2023-01-25T05:13:23;103578.88;;;-0.39;100.00
15794;BME280;7999;51.208;4.244;2023-01-25T05:15:58;103581.53;;;-0.47;100.00
15794;BME280;7999;51.208;4.244;2023-01-25T05:18:26;103582.09;;;-0.60;100.00
15794;BME280;7999;51.208;4.244;2023-01-25T05:20:53;103573.22;;;-0.45;100.00
15794;BME280;7999;51.208;4.244;2023-01-25T05:23:22;103574.03;;;-0.36;100.00
15794;BME280;7999;51.208;4.244;2023-01-25T05:25:49;103570.97;;;-0.32;100.00
15794;BME280;7999;51.208;4.244;2023-01-25T05:28:34;103561.56;;;-0.22;100.00
15794;BME280;7999;51.208;4.244;2023-01-25T05:31:20;103557.13;;;-0.44;100.00
15794;BME280;7999;51.208;4.244;2023-01-25T05:33:49;103566.31;;;-0.46;100.00
15794;BME280;7999;51.208;4.244;2023-01-25T05:36:17;103565.78;;;-0.52;100.00
15794;BME280;7999;51.208;4.244;2023-01-25T05:38:43;103567.13;;;-0.37;100.00
15794;BME280;7999;51.208;4.244;2023-01-25T05:41:11;103565.97;;;-0.40;100.00
15794;BME280;7999;51.208;4.244;2023-01-25T05:43:38;103561.13;;;-0.37;100.00
15794;BME280;7999;51.208;4.244;2023-01-25T05:46:05;103565.44;;;-0.46;100.00
15794;BME280;7999;51.208;4.244;2023-01-25T05:48:33;103554.31;;;-0.47;100.00
15794;BME280;7999;51.208;4.244;2023-01-25T05:51:03;103556.38;;;-0.43;100.00
15794;BME280;7999;51.208;4.244;2023-01-25T05:53:31;103554.06;;;-0.50;100.00
15794;BME280;7999;51.208;4.244;2023-01-25T05:56:02;103554.59;;;-0.44;100.00
15794;BME280;7999;51.208;4.244;2023-01-25T05:58:29;103556.00;;;-0.85;100.00
15794;BME280;7999;51.208;4.244;2023-01-25T06:00:58;103554.06;;;-0.69;100.00
15794;BME280;7999;51.208;4.244;2023-01-25T06:03:33;103549.00;;;-0.58;100.00
15794;BME280;7999;51.208;4.244;2023-01-25T06:06:00;103552.78;;;-0.45;100.00
15794;BME280;7999;51.208;4.244;2023-01-25T06:08:30;103550.72;;;-0.49;100.00
15794;BME280;7999;51.208;4.244;2023-01-25T06:10:57;103545.56;;;-0.59;100.00
15794;BME280;7999;51.208;4.244;2023-01-25T06:13:24;103546.88;;;-0.54;100.00
15794;BME280;7999;51.208;4.244;2023-01-25T06:15:51;103549.19;;;-0.47;100.00
15794;BME280;7999;51.208;4.244;2023-01-25T06:18:43;103552.00;;;-0.54;100.00
15794;BME280;7999;51.208;4.244;2023-01-25T06:21:10;103552.53;;;-0.48;100.00
15794;BME280;7999;51.208;4.244;2023-01-25T06:23:39;103548.38;;;-0.56;100.00
15794;BME280;7999;51.208;4.244;2023-01-25T06:26:07;103552.91;;;-0.72;100.00
15794;BME280;7999;51.208;4.244;2023-01-25T06:28:34;103551.94;;;-0.83;100.00
15794;BME280;7999;51.208;4.244;2023-01-25T06:31:02;103550.09;;;-0.75;100.00
15794;BME280;7999;51.208;4.244;2023-01-25T06:33:29;103550.34;;;-0.72;100.00
15794;BME280;7999;51.208;4.244;2023-01-25T06:35:58;103556.28;;;-0.63;100.00
15794;BME280;7999;51.208;4.244;2023-01-25T06:38:24;103549.19;;;-0.47;100.00
15794;BME280;7999;51.208;4.244;2023-01-25T06:40:53;103546.91;;;-0.44;100.00
15794;BME280;7999;51.208;4.244;2023-01-25T06:43:20;103547.66;;;-0.74;100.00
15794;BME280;7999;51.208;4.244;2023-01-25T06:45:47;103553.81;;;-0.43;100.00
15794;BME280;7999;51.208;4.244;2023-01-25T06:48:14;103544.53;;;-0.61;100.00
15794;BME280;7999;51.208;4.244;2023-01-25T06:50:41;103546.25;;;-0.80;100.00
15794;BME280;7999;51.208;4.244;2023-01-25T06:53:08;103550.09;;;-0.75;100.00
15794;BME280;7999;51.208;4.244;2023-01-25T06:55:35;103543.06;;;-0.97;100.00
15794;BME280;7999;51.208;4.244;2023-01-25T06:58:03;103552.78;;;-0.93;100.00
15794;BME280;7999;51.208;4.244;2023-01-25T07:00:29;103549.81;;;-0.78;100.00
15794;BME280;7999;51.208;4.244;2023-01-25T07:02:56;103553.31;;;-0.68;100.00
15794;BME280;7999;51.208;4.244;2023-01-25T07:05:23;103556.28;;;-0.63;100.00
15794;BME280;7999;51.208;4.244;2023-01-25T07:07:49;103554.22;;;-0.67;100.00
15794;BME280;7999;51.208;4.244;2023-01-25T07:10:16;103556.09;;;-0.46;100.00
15794;BME280;7999;51.208;4.244;2023-01-25T07:12:43;103556.53;;;-0.60;100.00
15794;BME280;7999;51.208;4.244;2023-01-25T07:15:11;103553.41;;;-0.76;100.00
15794;BME280;7999;51.208;4.244;2023-01-25T07:17:37;103554.66;;;-0.81;100.00
15794;BME280;7999;51.208;4.244;2023-01-25T07:20:04;103547.34;;;-1.06;100.00
15794;BME280;7999;51.208;4.244;2023-01-25T07:22:32;103548.88;;;-1.08;100.00
15794;BME280;7999;51.208;4.244;2023-01-25T07:24:59;103545.25;;;-1.10;100.00
15794;BME280;7999;51.208;4.244;2023-01-25T07:27:26;103533.88;;;-0.95;100.00
15794;BME280;7999;51.208;4.244;2023-01-25T07:29:53;103536.56;;;-1.12;100.00
15794;BME280;7999;51.208;4.244;2023-01-25T07:32:21;103534.50;;;-1.16;100.00
15794;BME280;7999;51.208;4.244;2023-01-25T07:34:48;103538.59;;;-0.99;100.00
15794;BME280;7999;51.208;4.244;2023-01-25T07:37:14;103538.75;;;-0.87;100.00
15794;BME280;7999;51.208;4.244;2023-01-25T07:39:41;103530.34;;;-0.86;100.00
15794;BME280;7999;51.208;4.244;2023-01-25T07:42:12;103525.88;;;-0.60;100.00
15794;BME280;7999;51.208;4.244;2023-01-25T07:44:48;103533.50;;;-0.70;100.00
15794;BME280;7999;51.208;4.244;2023-01-25T07:47:17;103534.31;;;-0.61;100.00
15794;BME280;7999;51.208;4.244;2023-01-25T07:49:45;103532.25;;;-0.65;100.00
15794;BME280;7999;51.208;4.244;2023-01-25T07:52:12;103532.97;;;-0.76;100.00
15794;BME280;7999;51.208;4.244;2023-01-25T07:54:39;103536.09;;;-0.60;100.00
15794;BME280;7999;51.208;4.244;2023-01-25T07:57:05;103532.59;;;-0.52;100.00
15794;BME280;7999;51.208;4.244;2023-01-25T07:59:32;103531.38;;;-0.55;100.00
15794;BME280;7999;51.208;4.244;2023-01-25T08:01:59;103527.25;;;-0.45;100.00
15794;BME280;7999;51.208;4.244;2023-01-25T08:04:26;103526.22;;;-0.37;100.00
15794;BME280;7999;51.208;4.244;2023-01-25T08:06:54;103518.06;;;-0.33;100.00
15794;BME280;7999;51.208;4.244;2023-01-25T08:09:26;103512.59;;;-0.56;100.00
15794;BME280;7999;51.208;4.244;2023-01-25T08:11:54;103513.94;;;-0.51;100.00
15794;BME280;7999;51.208;4.244;2023-01-25T08:14:20;103515.91;;;-0.67;100.00
15794;BME280;7999;51.208;4.244;2023-01-25T08:16:49;103517.19;;;-0.62;100.00
15794;BME280;7999;51.208;4.244;2023-01-25T08:19:16;103515.22;;;-0.46;100.00
15794;BME280;7999;51.208;4.244;2023-01-25T08:21:44;103507.81;;;-0.43;100.00
15794;BME280;7999;51.208;4.244;2023-01-25T08:24:12;103504.69;;;-0.59;100.00
15794;BME280;7999;51.208;4.244;2023-01-25T08:26:39;103505.66;;;-0.38;100.00
15794;BME280;7999;51.208;4.244;2023-01-25T08:29:05;103505.91;;;-0.45;100.00
15794;BME280;7999;51.208;4.244;2023-01-25T08:31:33;103503.16;;;-0.57;100.00
15794;BME280;7999;51.208;4.244;2023-01-25T08:34:01;103510.13;;;-0.36;100.00
15794;BME280;7999;51.208;4.244;2023-01-25T08:36:28;103499.88;;;-0.46;100.00
15794;BME280;7999;51.208;4.244;2023-01-25T08:38:55;103501.84;;;-0.33;100.00
15794;BME280;7999;51.208;4.244;2023-01-25T08:41:24;103501.44;;;-0.77;100.00
15794;BME280;7999;51.208;4.244;2023-01-25T08:43:52;103501.91;;;-0.52;100.00
15794;BME280;7999;51.208;4.244;2023-01-25T08:46:20;103498.88;;;-0.38;100.00
15794;BME280;7999;51.208;4.244;2023-01-25T08:48:47;103493.78;;;-0.38;100.00
15794;BME280;7999;51.208;4.244;2023-01-25T08:51:18;103500.03;;;-0.34;100.00
15794;BME280;7999;51.208;4.244;2023-01-25T08:53:46;103493.06;;;-0.26;100.00
15794;BME280;7999;51.208;4.244;2023-01-25T08:56:15;103499.41;;;-0.32;100.00
15794;BME280;7999;51.208;4.244;2023-01-25T08:58:44;103506.56;;;-0.27;100.00
15794;BME280;7999;51.208;4.244;2023-01-25T09:01:11;103500.22;;;-0.22;100.00
15794;BME280;7999;51.208;4.244;2023-01-25T09:03:39;103497.53;;;-0.24;100.00
15794;BME280;7999;51.208;4.244;2023-01-25T09:06:07;103504.66;;;-0.30;100.00
15794;BME280;7999;51.208;4.244;2023-01-25T09:08:34;103507.84;;;-0.33;100.00
15794;BME280;7999;51.208;4.244;2023-01-25T09:11:03;103504.28;;;-0.64;100.00
15794;BME280;7999;51.208;4.244;2023-01-25T09:13:30;103498.88;;;-0.38;100.00
15794;BME280;7999;51.208;4.244;2023-01-25T09:16:01;103502.38;;;-0.27;100.00
15794;BME280;7999;51.208;4.244;2023-01-25T09:18:29;103513.06;;;-0.41;100.00
15794;BME280;7999;51.208;4.244;2023-01-25T09:20:55;103510.25;;;-0.44;100.00
15794;BME280;7999;51.208;4.244;2023-01-25T09:23:23;103515.00;;;-0.28;100.00
15794;BME280;7999;51.208;4.244;2023-01-25T09:25:54;103513.91;;;-0.22;100.00
15794;BME280;7999;51.208;4.244;2023-01-25T09:28:22;103506.09;;;-0.23;100.00
15794;BME280;7999;51.208;4.244;2023-01-25T09:30:52;103499.41;;;-0.32;100.00
15794;BME280;7999;51.208;4.244;2023-01-25T09:33:27;103496.56;;;-0.45;100.00
15794;BME280;7999;51.208;4.244;2023-01-25T09:35:54;103502.69;;;-0.53;100.00
15794;BME280;7999;51.208;4.244;2023-01-25T09:38:22;103495.31;;;-0.40;100.00
15794;BME280;7999;51.208;4.244;2023-01-25T09:40:53;103492.13;;;-0.37;100.00
15794;BME280;7999;51.208;4.244;2023-01-25T09:43:26;103491.47;;;-0.35;100.00
15794;BME280;7999;51.208;4.244;2023-01-25T09:45:56;103483.31;;;-0.31;100.00
15794;BME280;7999;51.208;4.244;2023-01-25T09:48:24;103494.03;;;-0.35;100.00
15794;BME280;7999;51.208;4.244;2023-01-25T09:51:02;103493.78;;;-0.38;100.00
15794;BME280;7999;51.208;4.244;2023-01-25T09:53:31;103490.19;;;-0.40;100.00
15794;BME280;7999;51.208;4.244;2023-01-25T09:56:00;103487.44;;;-0.22;100.00
15794;BME280;7999;51.208;4.244;2023-01-25T09:58:29;103484.88;;;-0.22;100.00
15794;BME280;7999;51.208;4.244;2023-01-25T10:01:01;103486.66;;;-0.21;100.00
15794;BME280;7999;51.208;4.244;2023-01-25T10:03:33;103485.53;;;-0.25;100.00
15794;BME280;7999;51.208;4.244;2023-01-25T10:06:05;103477.72;;;-0.26;100.00
15794;BME280;7999;51.208;4.244;2023-01-25T10:08:36;103482.34;;;-0.12;100.00
15794;BME280;7999;51.208;4.244;2023-01-25T10:11:11;103484.25;;;-0.20;100.00
15794;BME280;7999;51.208;4.244;2023-01-25T10:13:39;103476.91;;;-0.36;100.00
15794;BME280;7999;51.208;4.244;2023-01-25T10:16:10;103468.22;;;-0.27;100.00
15794;BME280;7999;51.208;4.244;2023-01-25T10:18:52;103471.59;;;-0.18;100.00
15794;BME280;7999;51.208;4.244;2023-01-25T10:21:22;103465.09;;;0.06;100.00
15794;BME280;7999;51.208;4.244;2023-01-25T10:26:37;103454.97;;;-0.23;100.00
15794;BME280;7999;51.208;4.244;2023-01-25T10:29:07;103452.53;;;-0.12;100.00
15794;BME280;7999;51.208;4.244;2023-01-25T10:31:38;103442.97;;;0.06;100.00
15794;BME280;7999;51.208;4.244;2023-01-25T10:34:11;103447.94;;;-0.06;100.00
15794;BME280;7999;51.208;4.244;2023-01-25T10:36:41;103441.97;;;0.04;100.00
15794;BME280;7999;51.208;4.244;2023-01-25T10:39:11;103438.22;;;-0.10;100.00
15794;BME280;7999;51.208;4.244;2023-01-25T10:41:38;103427.38;;;-0.07;100.00
15794;BME280;7999;51.208;4.244;2023-01-25T10:44:08;103424.28;;;-0.13;100.00
15794;BME280;7999;51.208;4.244;2023-01-25T10:46:55;103419.56;;;-0.19;100.00
15794;BME280;7999;51.208;4.244;2023-01-25T10:49:24;103418.41;;;-0.02;100.00
15794;BME280;7999;51.208;4.244;2023-01-25T10:51:54;103418.94;;;-0.16;100.00
15794;BME280;7999;51.208;4.244;2023-01-25T10:54:22;103406.25;;;-0.05;100.00
15794;BME280;7999;51.208;4.244;2023-01-25T10:56:49;103397.72;;;-0.15;100.00
15794;BME280;7999;51.208;4.244;2023-01-25T10:59:17;103397.56;;;-0.07;100.00
15794;BME280;7999;51.208;4.244;2023-01-25T11:01:45;103396.44;;;0.00;100.00
15794;BME280;7999;51.208;4.244;2023-01-25T11:04:31;103390.44;;;-0.21;100.00
15794;BME280;7999;51.208;4.244;2023-01-25T11:06:59;103380.31;;;-0.09;100.00
15794;BME280;7999;51.208;4.244;2023-01-25T11:09:33;103376.75;;;0.09;100.00
15794;BME280;7999;51.208;4.244;2023-01-25T11:12:01;103366.00;;;0.13;100.00
15794;BME280;7999;51.208;4.244;2023-01-25T11:14:29;103365.50;;;0.07;100.00
15794;BME280;7999;51.208;4.244;2023-01-25T11:16:57;103363.44;;;-0.27;100.00
15794;BME280;7999;51.208;4.244;2023-01-25T11:19:26;103352.19;;;-0.29;100.00
15794;BME280;7999;51.208;4.244;2023-01-25T11:21:53;103350.81;;;-0.26;100.00
15794;BME280;7999;51.208;4.244;2023-01-25T11:24:25;103349.50;;;-0.41;100.00
15794;BME280;7999;51.208;4.244;2023-01-25T11:29:34;103343.50;;;-0.42;100.00
15794;BME280;7999;51.208;4.244;2023-01-25T11:32:01;103334.69;;;-0.35;100.00
15794;BME280;7999;51.208;4.244;2023-01-25T11:34:29;103340.19;;;-0.41;100.00
15794;BME280;7999;51.208;4.244;2023-01-25T11:36:59;103326.53;;;-1.01;100.00
15794;BME280;7999;51.208;4.244;2023-01-25T11:42:22;103306.94;;;-0.31;100.00
15794;BME280;7999;51.208;4.244;2023-01-25T11:45:02;103297.50;;;-0.21;100.00
15794;BME280;7999;51.208;4.244;2023-01-25T11:47:39;103290.44;;;-0.04;100.00
15794;BME280;7999;51.208;4.244;2023-01-25T11:50:12;103290.06;;;-0.08;100.00
15794;BME280;7999;51.208;4.244;2023-01-25T11:52:46;103291.44;;;-0.02;100.00
15794;BME280;7999;51.208;4.244;2023-01-25T11:55:22;103287.50;;;-0.08;100.00
15794;BME280;7999;51.208;4.244;2023-01-25T11:57:59;103277.88;;;-0.01;100.00
15794;BME280;7999;51.208;4.244;2023-01-25T12:00:31;103267.84;;;-0.19;100.00
15794;BME280;7999;51.208;4.244;2023-01-25T12:05:47;103266.59;;;-0.65;100.00
15794;BME280;7999;51.208;4.244;2023-01-25T12:08:25;103251.25;;;-0.65;100.00
15794;BME280;7999;51.208;4.244;2023-01-25T12:10:57;103239.78;;;-0.80;100.00
15794;BME280;7999;51.208;4.244;2023-01-25T12:13:31;103238.75;;;-0.52;100.00
15794;BME280;7999;51.208;4.244;2023-01-25T12:16:09;103231.09;;;-0.72;100.00
15794;BME280;7999;51.208;4.244;2023-01-25T12:18:42;103225.72;;;-0.65;100.00
15794;BME280;7999;51.208;4.244;2023-01-25T12:21:17;103220.22;;;-0.59;100.00
15794;BME280;7999;51.208;4.244;2023-01-25T12:23:56;103213.19;;;-0.93;100.00
15794;BME280;7999;51.208;4.244;2023-01-25T12:26:27;103206.94;;;-0.86;100.00
15794;BME280;7999;51.208;4.244;2023-01-25T12:28:58;103200.94;;;-0.97;100.00
15794;BME280;7999;51.208;4.244;2023-01-25T12:31:32;103195.47;;;-1.01;100.00
15794;BME280;7999;51.208;4.244;2023-01-25T12:34:01;103179.63;;;-1.07;100.00
15794;BME280;7999;51.208;4.244;2023-01-25T12:36:30;103186.25;;;-0.99;100.00
15794;BME280;7999;51.208;4.244;2023-01-25T12:38:58;103177.84;;;-0.78;100.00
15794;BME280;7999;51.208;4.244;2023-01-25T12:41:29;103175.91;;;-0.50;100.00
15794;BME280;7999;51.208;4.244;2023-01-25T12:44:00;103176.66;;;-0.61;100.00
15794;BME280;7999;51.208;4.244;2023-01-25T12:46:30;103164.94;;;-0.69;100.00
15794;BME280;7999;51.208;4.244;2023-01-25T12:48:59;103160.03;;;-0.56;100.00
15794;BME280;7999;51.208;4.244;2023-01-25T12:51:28;103153.41;;;-0.44;100.00
15794;BME280;7999;51.208;4.244;2023-01-25T12:53:59;103149.56;;;-0.59;100.00
15794;BME280;7999;51.208;4.244;2023-01-25T12:56:31;103136.28;;;-0.55;100.00
15794;BME280;7999;51.208;4.244;2023-01-25T12:59:02;103132.19;;;-0.43;100.00
15794;BME280;7999;51.208;4.244;2023-01-25T13:01:34;103135.50;;;-0.44;100.00
15794;BME280;7999;51.208;4.244;2023-01-25T13:04:08;103130.34;;;-0.23;100.00
15794;BME280;7999;51.208;4.244;2023-01-25T13:06:42;103133.25;;;-0.19;100.00
15794;BME280;7999;51.208;4.244;2023-01-25T13:09:12;103122.44;;;-0.37;100.00
15794;BME280;7999;51.208;4.244;2023-01-25T13:11:41;103122.78;;;-0.64;100.00
15794;BME280;7999;51.208;4.244;2023-01-25T13:17:16;103106.47;;;-0.86;100.00